Madrid El Retiro

latitud = 40° 24' 40''N | longitud = 003° 40' 41''W
667 metros sobre el nivel del mar | datos mensuales

Fecha, hora, temperatura, viento dirección y velocidad, humedad y presión.

  • 14-10-2018 19:00:00 | 13.30°C | Oeste |18.00 km/h | 53.00% | 931.00 hPa
  • 14-10-2018 18:00:00 | 14.50°C | Oeste |16.00 km/h | 49.00% | 930.40 hPa
  • 14-10-2018 17:00:00 | 14.90°C | Oeste |16.00 km/h | 49.00% | 930.20 hPa
  • 14-10-2018 16:00:00 | 14.40°C | Noroeste |13.00 km/h | 53.00% | 930.60 hPa
  • 14-10-2018 15:00:00 | 14.80°C | Oeste |12.00 km/h | 56.00% | 930.50 hPa
  • 14-10-2018 14:00:00 | 13.40°C | Oeste |13.00 km/h | 65.00% | 930.90 hPa
  • 14-10-2018 13:00:00 | 13.60°C | Oeste |13.00 km/h | 71.00% | 930.70 hPa
  • 14-10-2018 12:00:00 | 13.50°C | Oeste |16.00 km/h | 80.00% | 930.50 hPa
  • 14-10-2018 11:00:00 | 13.00°C | Sudoeste |13.00 km/h | 87.00% | 930.30 hPa
  • 14-10-2018 10:00:00 | 13.50°C | Sudoeste |12.00 km/h | 87.00% | 929.40 hPa
  • 14-10-2018 09:00:00 | 14.20°C | Sur |7.00 km/h | 90.00% | 927.70 hPa
  • 14-10-2018 08:00:00 | 14.30°C | Sur |13.00 km/h | 88.00% | 927.60 hPa
  • 14-10-2018 07:00:00 | 16.20°C | Oeste |9.00 km/h | 75.00% | 930.50 hPa
  • 14-10-2018 06:00:00 | 17.40°C | Sur |4.00 km/h | 71.00% | 930.60 hPa
  • 14-10-2018 05:00:00 | 17.60°C | Sur |6.00 km/h | 68.00% | 931.00 hPa
  • 14-10-2018 04:00:00 | 18.00°C | Sur |8.00 km/h | 63.00% | 931.10 hPa
  • 14-10-2018 03:00:00 | 18.10°C | Sur |11.00 km/h | 64.00% | 931.60 hPa
  • 14-10-2018 02:00:00 | 18.40°C | Sudeste |9.00 km/h | 62.00% | 932.40 hPa
  • 14-10-2018 01:00:00 | 18.80°C | Sudeste |6.00 km/h | 58.00% | 933.50 hPa
  • 14-10-2018 00:00:00 | 18.80°C | Sur |6.00 km/h | 58.00% | 934.00 hPa
  • 13-10-2018 23:00:00 | 19.90°C | Este |3.00 km/h | 57.00% | 934.40 hPa
  • 13-10-2018 22:00:00 | 20.20°C | Nordeste |5.00 km/h | 57.00% | 934.90 hPa
  • 13-10-2018 21:00:00 | 19.90°C | Calma |0.00 km/h | 59.00% | 935.60 hPa
  • 13-10-2018 20:00:00 | 21.00°C | Calma |0.00 km/h | 54.00% | 936.10 hPa